Jefferson, Illinois
Current Conditions -  °F | °C
As of 12:51 PM on Friday 28 Nov 2014 (Local Time) from KORD Reporting Station
Overcast Overcast  
Wind Chill: 17°   Ceiling: 12000
Heat Index: 29°   Visibility: 10mi
Dew Point: 18°   Wind: 16mph
Humidity: 64%   Direction: 170°S
Pressure: 30.06"   Gusts: NA
Location:  41.9738°N, 87.7498°W
Report Text: KORD 281851Z 17014KT 10SM OVC120 M02/M08 A3006 RMK AO2 SLP189 T10171078
Loading
Personal Weather Stations






























Interactive Weather Map New forecast layout! Learn more

10-Day Weather Forecast

Advertisements
Track Severe Weather on mobile